Etusivu
METAR-TAF:

METAR-TAF

Lentoasemat :

Apalachicola, Florida, Yhdysvallat

Leveyspiiri: 29-43-37N, Pituuspiiri: 085-01-29W, korkeus merenpinnasta: 6 m

Tämänhetkinen sää

Tämä raportti tehtiin 25 minuuttia sitten, kello 05.53 UTC
Tuuli 3 kn luoteesta
Lämpötila 24°C
Kosteus 89%
Ilmanpaine 1015 hPa
Näkyvyys: 16.1 km
selkeää

METAR: KAAF 170553Z AUTO 32003KT 10SM CLR 24/22 A2996 RMK AO2 SLP143 T02440222 10278 20233 58008

Aika: 02:18 (06:18 UTC)


TAF: puuttuu

Säähavainnot ja -ennusteet yli 4000 lentoasemalta (METAR- ja TAF-raportit).

Käytössä olevat sääasemat on merkitty karttaan keltaisilla ja punaisilla pisteillä.

Aseta hiiri pisteen päälle nähdäksesi sääaseman nimen.

Klikkaa sitten nähdäksesi säähavainnot ja -ennusteet.

Kartan vaihtaminen: klikkaa mustalla rastilla varustettuja vihreitä pisteitä, niin voit zoomata sisään; viivalla varustettua vihreää pistettä, niin voit zoomata ulos tai vihreitä nuolia, niin pääset viereisille kartoille.


METAR-TAF: